KTEX/TEX METAR and TAF weather

Enter ICAO airport designator
Station Type Date Time Source
KTEX METAR 2019/10/23 20:15 UTC NOAA

KTEX 232015Z AUTO 28014G21KT 10SM CLR 10/M12 A3020 RMK AO2


Station Type Date Time Source
KTEX Decoded METAR 2019/10/23 20:15 UTC NOAA

Telluride, Telluride Regional Airport, CO, United States (KTEX) 37-57-14N 107-54-31W
Oct 23, 2019 - 04:15 PM EDT / 2019.10.23 2015 UTC
Wind: from the W (280 degrees) at 16 MPH (14 KT) gusting to 24 MPH (21 KT):0
Visibility: 10 mile(s):0
Sky conditions: clear
Temperature: 50 F (10 C)
Dew Point: 10 F (-12 C)
Relative Humidity: 19%
Pressure (altimeter): 30.2 in. Hg (1022 hPa)
ob: KTEX 232015Z AUTO 28014G21KT 10SM CLR 10/M12 A3020 RMK AO2
cycle: 20

Station Type Date Time Source
KTEX TAF 2019/10/23 18:42 UTC NOAA

TAF KTEX 231740Z 2318/2418 VRB04KT P6SM FEW090 FEW250
FM231900 28010G20KT P6SM FEW090 SCT250
FM240300 27008KT P6SM SCT050 BKN100
FM241000 27010G18KT P6SM VCSH SCT025 BKN100
FM241500 VRB04KT P6SM FEW035 SCT100

Example: see airport list